sensor_id;sensor_type;location;lat;lon;timestamp;pressure;altitude;pressure_sealevel;temperature;humidity
75157;BME280;63736;50.076;8.198;2023-03-01T00:01:03;100651.22;;;-0.43;76.26
75157;BME280;63736;50.076;8.198;2023-03-01T00:03:29;100656.41;;;-0.40;74.93
75157;BME280;63736;50.076;8.198;2023-03-01T00:05:54;100653.78;;;-0.40;75.62
75157;BME280;63736;50.076;8.198;2023-03-01T00:08:20;100659.88;;;-0.40;75.01
75157;BME280;63736;50.076;8.198;2023-03-01T00:10:45;100658.19;;;-0.42;75.27
75157;BME280;63736;50.076;8.198;2023-03-01T00:13:10;100661.66;;;-0.42;75.47
75157;BME280;63736;50.076;8.198;2023-03-01T00:15:39;100659.88;;;-0.40;75.36
75157;BME280;63736;50.076;8.198;2023-03-01T00:18:05;100653.78;;;-0.42;75.96
75157;BME280;63736;50.076;8.198;2023-03-01T00:20:30;100653.75;;;-0.39;75.63
75157;BME280;63736;50.076;8.198;2023-03-01T00:22:55;100651.97;;;-0.38;75.46
75157;BME280;63736;50.076;8.198;2023-03-01T00:25:21;100653.72;;;-0.37;76.21
75157;BME280;63736;50.076;8.198;2023-03-01T00:27:47;100637.06;;;-0.36;76.25
75157;BME280;63736;50.076;8.198;2023-03-01T00:30:14;100651.09;;;-0.37;75.76
75157;BME280;63736;50.076;8.198;2023-03-01T00:32:39;100651.97;;;-0.38;75.92
75157;BME280;63736;50.076;8.198;2023-03-01T00:35:05;100646.69;;;-0.37;76.28
75157;BME280;63736;50.076;8.198;2023-03-01T00:37:31;100644.91;;;-0.35;76.42
75157;BME280;63736;50.076;8.198;2023-03-01T00:39:56;100633.47;;;-0.32;75.92
75157;BME280;63736;50.076;8.198;2023-03-01T00:42:21;100638.72;;;-0.32;75.59
75157;BME280;63736;50.076;8.198;2023-03-01T00:44:47;100634.38;;;-0.33;76.34
75157;BME280;63736;50.076;8.198;2023-03-01T00:47:12;100632.59;;;-0.31;76.46
75157;BME280;63736;50.076;8.198;2023-03-01T00:49:39;100631.66;;;-0.28;76.01
75157;BME280;63736;50.076;8.198;2023-03-01T00:52:04;100636.03;;;-0.29;75.86
75157;BME280;63736;50.076;8.198;2023-03-01T00:54:29;100627.34;;;-0.31;75.94
75157;BME280;63736;50.076;8.198;2023-03-01T00:56:55;100623.03;;;-0.34;75.69
75157;BME280;63736;50.076;8.198;2023-03-01T00:59:20;100621.31;;;-0.36;76.32
75157;BME280;63736;50.076;8.198;2023-03-01T01:01:45;100615.22;;;-0.38;76.26
75157;BME280;63736;50.076;8.198;2023-03-01T01:04:13;100617.81;;;-0.37;76.90
75157;BME280;63736;50.076;8.198;2023-03-01T01:06:41;100614.28;;;-0.36;76.78
75157;BME280;63736;50.076;8.198;2023-03-01T01:09:12;100614.34;;;-0.37;77.21
75157;BME280;63736;50.076;8.198;2023-03-01T01:11:46;100602.06;;;-0.35;77.27
75157;BME280;63736;50.076;8.198;2023-03-01T01:14:12;100605.53;;;-0.35;77.31
75157;BME280;63736;50.076;8.198;2023-03-01T01:16:37;100611.63;;;-0.34;77.42
75157;BME280;63736;50.076;8.198;2023-03-01T01:19:03;100603.72;;;-0.31;77.30
75157;BME280;63736;50.076;8.198;2023-03-01T01:21:28;100608.06;;;-0.30;76.69
75157;BME280;63736;50.076;8.198;2023-03-01T01:23:54;100597.56;;;-0.31;76.90
75157;BME280;63736;50.076;8.198;2023-03-01T01:26:24;100600.19;;;-0.31;76.83
75157;BME280;63736;50.076;8.198;2023-03-01T01:28:51;100598.47;;;-0.31;77.34
75157;BME280;63736;50.076;8.198;2023-03-01T01:31:17;100598.38;;;-0.28;77.03
75157;BME280;63736;50.076;8.198;2023-03-01T01:33:43;100582.56;;;-0.25;76.72
75157;BME280;63736;50.076;8.198;2023-03-01T01:36:09;100587.84;;;-0.26;76.59
75157;BME280;63736;50.076;8.198;2023-03-01T01:38:36;100575.59;;;-0.27;77.37
75157;BME280;63736;50.076;8.198;2023-03-01T01:41:02;100571.19;;;-0.25;77.73
75157;BME280;63736;50.076;8.198;2023-03-01T01:43:37;100564.16;;;-0.23;77.26
75157;BME280;63736;50.076;8.198;2023-03-01T01:46:30;100554.41;;;-0.18;77.28
75157;BME280;63736;50.076;8.198;2023-03-01T01:49:14;100552.59;;;-0.16;77.08
75157;BME280;63736;50.076;8.198;2023-03-01T01:51:44;100554.28;;;-0.13;76.54
75157;BME280;63736;50.076;8.198;2023-03-01T01:54:18;100557.75;;;-0.11;76.83
75157;BME280;63736;50.076;8.198;2023-03-01T01:56:49;100560.31;;;-0.08;77.13
75157;BME280;63736;50.076;8.198;2023-03-01T01:59:17;100563.69;;;-0.03;76.11
75157;BME280;63736;50.076;8.198;2023-03-01T02:01:43;100557.50;;;-0.01;76.24
75157;BME280;63736;50.076;8.198;2023-03-01T02:04:08;100557.47;;;0.01;76.11
75157;BME280;63736;50.076;8.198;2023-03-01T02:06:39;100567.13;;;0.01;76.27
75157;BME280;63736;50.076;8.198;2023-03-01T02:09:09;100561.84;;;0.01;76.39
75157;BME280;63736;50.076;8.198;2023-03-01T02:11:36;100557.50;;;-0.01;76.40
75157;BME280;63736;50.076;8.198;2023-03-01T02:14:03;100550.56;;;-0.03;76.34
75157;BME280;63736;50.076;8.198;2023-03-01T02:16:29;100556.69;;;-0.04;76.79
75157;BME280;63736;50.076;8.198;2023-03-01T02:18:56;100548.88;;;-0.06;77.08
75157;BME280;63736;50.076;8.198;2023-03-01T02:21:34;100551.53;;;-0.07;77.86
75157;BME280;63736;50.076;8.198;2023-03-01T02:24:10;100556.69;;;-0.04;77.64
75157;BME280;63736;50.076;8.198;2023-03-01T02:26:45;100549.66;;;-0.02;77.28
75157;BME280;63736;50.076;8.198;2023-03-01T02:29:12;100541.78;;;-0.02;76.92
75157;BME280;63736;50.076;8.198;2023-03-01T02:31:37;100548.78;;;-0.01;77.67
75157;BME280;63736;50.076;8.198;2023-03-01T02:34:21;100547.88;;;0.00;77.59
75157;BME280;63736;50.076;8.198;2023-03-01T02:36:57;100547.84;;;0.02;77.33
75157;BME280;63736;50.076;8.198;2023-03-01T02:39:56;100535.50;;;0.04;76.31
75157;BME280;63736;50.076;8.198;2023-03-01T02:42:28;100529.34;;;0.05;77.17
75157;BME280;63736;50.076;8.198;2023-03-01T02:44:55;100531.16;;;0.03;76.26
75157;BME280;63736;50.076;8.198;2023-03-01T02:47:21;100528.47;;;0.06;76.65
75157;BME280;63736;50.076;8.198;2023-03-01T02:49:46;100517.97;;;0.06;76.38
75157;BME280;63736;50.076;8.198;2023-03-01T02:52:33;100519.69;;;0.07;76.90
75157;BME280;63736;50.076;8.198;2023-03-01T02:55:06;100510.06;;;0.06;76.73
75157;BME280;63736;50.076;8.198;2023-03-01T02:57:34;100504.78;;;0.07;77.07
75157;BME280;63736;50.076;8.198;2023-03-01T03:00:07;100504.78;;;0.07;76.70
75157;BME280;63736;50.076;8.198;2023-03-01T03:02:34;100507.41;;;0.07;76.63
75157;BME280;63736;50.076;8.198;2023-03-01T03:05:09;100501.25;;;0.08;76.20
75157;BME280;63736;50.076;8.198;2023-03-01T03:07:37;100502.06;;;0.10;76.18
75157;BME280;63736;50.076;8.198;2023-03-01T03:10:04;100502.06;;;0.12;75.54
75157;BME280;63736;50.076;8.198;2023-03-01T03:12:31;100491.53;;;0.12;75.51
75157;BME280;63736;50.076;8.198;2023-03-01T03:14:56;100494.19;;;0.10;75.66
75157;BME280;63736;50.076;8.198;2023-03-01T03:17:22;100491.63;;;0.07;75.21
75157;BME280;63736;50.076;8.198;2023-03-01T03:19:47;100489.09;;;0.04;75.36
75157;BME280;63736;50.076;8.198;2023-03-01T03:22:12;100483.09;;;-0.01;76.03
75157;BME280;63736;50.076;8.198;2023-03-01T03:24:38;100471.81;;;-0.05;75.27
75157;BME280;63736;50.076;8.198;2023-03-01T03:27:05;100481.56;;;-0.10;75.99
75157;BME280;63736;50.076;8.198;2023-03-01T03:29:31;100482.53;;;-0.14;75.94
75157;BME280;63736;50.076;8.198;2023-03-01T03:31:56;100486.16;;;-0.18;77.44
75157;BME280;63736;50.076;8.198;2023-03-01T03:34:21;100481.75;;;-0.18;77.33
75157;BME280;63736;50.076;8.198;2023-03-01T03:36:47;100473.94;;;-0.21;77.47
75157;BME280;63736;50.076;8.198;2023-03-01T03:39:12;100481.81;;;-0.21;77.58
75157;BME280;63736;50.076;8.198;2023-03-01T03:41:37;100476.63;;;-0.24;77.79
75157;BME280;63736;50.076;8.198;2023-03-01T03:44:03;100470.56;;;-0.26;77.85
75157;BME280;63736;50.076;8.198;2023-03-01T03:46:28;100469.72;;;-0.28;78.75
75157;BME280;63736;50.076;8.198;2023-03-01T03:48:53;100463.69;;;-0.30;79.61
75157;BME280;63736;50.076;8.198;2023-03-01T03:51:19;100465.47;;;-0.32;79.18
75157;BME280;63736;50.076;8.198;2023-03-01T03:53:45;100455.84;;;-0.33;78.92
75157;BME280;63736;50.076;8.198;2023-03-01T03:56:11;100455.06;;;-0.37;79.25
75157;BME280;63736;50.076;8.198;2023-03-01T03:58:37;100450.72;;;-0.38;79.57
75157;BME280;63736;50.076;8.198;2023-03-01T04:01:03;100452.50;;;-0.40;79.93
75157;BME280;63736;50.076;8.198;2023-03-01T04:03:30;100450.81;;;-0.42;80.21
75157;BME280;63736;50.076;8.198;2023-03-01T04:05:57;100452.63;;;-0.44;80.12
75157;BME280;63736;50.076;8.198;2023-03-01T04:08:23;100452.63;;;-0.44;80.00
75157;BME280;63736;50.076;8.198;2023-03-01T04:10:51;100451.84;;;-0.48;79.70
75157;BME280;63736;50.076;8.198;2023-03-01T04:13:19;100447.53;;;-0.52;80.10
75157;BME280;63736;50.076;8.198;2023-03-01T04:15:52;100454.59;;;-0.54;80.08
75157;BME280;63736;50.076;8.198;2023-03-01T04:18:20;100457.28;;;-0.56;80.40
75157;BME280;63736;50.076;8.198;2023-03-01T04:20:46;100456.28;;;-0.52;80.20
75157;BME280;63736;50.076;8.198;2023-03-01T04:23:15;100457.09;;;-0.50;79.90
75157;BME280;63736;50.076;8.198;2023-03-01T04:25:55;100462.31;;;-0.46;79.56
75157;BME280;63736;50.076;8.198;2023-03-01T04:28:29;100463.19;;;-0.47;80.10
75157;BME280;63736;50.076;8.198;2023-03-01T04:30:56;100464.94;;;-0.46;80.12
75157;BME280;63736;50.076;8.198;2023-03-01T04:33:22;100468.44;;;-0.47;80.27
75157;BME280;63736;50.076;8.198;2023-03-01T04:35:47;100460.63;;;-0.49;80.21
75157;BME280;63736;50.076;8.198;2023-03-01T04:38:15;100451.84;;;-0.50;80.43
75157;BME280;63736;50.076;8.198;2023-03-01T04:40:40;100456.28;;;-0.52;80.63
75157;BME280;63736;50.076;8.198;2023-03-01T04:43:09;100461.50;;;-0.50;80.53
75157;BME280;63736;50.076;8.198;2023-03-01T04:45:35;100461.50;;;-0.50;80.21
75157;BME280;63736;50.076;8.198;2023-03-01T04:48:00;100448.38;;;-0.50;80.73
75157;BME280;63736;50.076;8.198;2023-03-01T04:50:25;100446.59;;;-0.48;80.53
75157;BME280;63736;50.076;8.198;2023-03-01T04:52:51;100453.53;;;-0.45;80.26
75157;BME280;63736;50.076;8.198;2023-03-01T04:55:17;100451.72;;;-0.43;80.04
75157;BME280;63736;50.076;8.198;2023-03-01T04:57:42;100447.38;;;-0.44;79.83
75157;BME280;63736;50.076;8.198;2023-03-01T05:00:10;100446.59;;;-0.50;80.35
75157;BME280;63736;50.076;8.198;2023-03-01T05:02:50;100449.41;;;-0.56;81.05
75157;BME280;63736;50.076;8.198;2023-03-01T05:05:19;100450.34;;;-0.58;81.59
75157;BME280;63736;50.076;8.198;2023-03-01T05:07:45;100450.34;;;-0.58;80.97
75157;BME280;63736;50.076;8.198;2023-03-01T05:10:10;100447.72;;;-0.58;81.69
75157;BME280;63736;50.076;8.198;2023-03-01T05:12:36;100447.72;;;-0.58;81.54
75157;BME280;63736;50.076;8.198;2023-03-01T05:15:03;100445.13;;;-0.60;81.84
75157;BME280;63736;50.076;8.198;2023-03-01T05:17:32;100446.81;;;-0.59;81.86
75157;BME280;63736;50.076;8.198;2023-03-01T05:19:57;100441.47;;;-0.54;81.42
75157;BME280;63736;50.076;8.198;2023-03-01T05:22:25;100444.91;;;-0.52;80.94
75157;BME280;63736;50.076;8.198;2023-03-01T05:24:50;100448.44;;;-0.52;80.84
75157;BME280;63736;50.076;8.198;2023-03-01T05:27:15;100445.84;;;-0.53;80.87
75157;BME280;63736;50.076;8.198;2023-03-01T05:29:41;100441.44;;;-0.53;80.91
75157;BME280;63736;50.076;8.198;2023-03-01T05:32:06;100439.72;;;-0.54;80.93
75157;BME280;63736;50.076;8.198;2023-03-01T05:34:35;100438.88;;;-0.54;81.56
75157;BME280;63736;50.076;8.198;2023-03-01T05:37:01;100437.03;;;-0.52;80.99
75157;BME280;63736;50.076;8.198;2023-03-01T05:39:28;100430.06;;;-0.52;80.74
75157;BME280;63736;50.076;8.198;2023-03-01T05:41:55;100429.06;;;-0.47;80.47
75157;BME280;63736;50.076;8.198;2023-03-01T05:44:21;100433.34;;;-0.43;80.21
75157;BME280;63736;50.076;8.198;2023-03-01T05:46:47;100433.22;;;-0.37;79.25
75157;BME280;63736;50.076;8.198;2023-03-01T05:49:13;100424.28;;;-0.30;78.42
75157;BME280;63736;50.076;8.198;2023-03-01T05:51:40;100430.31;;;-0.26;78.54
75157;BME280;63736;50.076;8.198;2023-03-01T05:54:06;100428.44;;;-0.21;78.61
75157;BME280;63736;50.076;8.198;2023-03-01T05:56:33;100428.38;;;-0.18;77.84
75157;BME280;63736;50.076;8.198;2023-03-01T05:58:59;100434.38;;;-0.13;77.55
75157;BME280;63736;50.076;8.198;2023-03-01T06:01:24;100427.31;;;-0.11;77.38
75157;BME280;63736;50.076;8.198;2023-03-01T06:03:50;100429.00;;;-0.08;77.23
75157;BME280;63736;50.076;8.198;2023-03-01T06:06:15;100421.06;;;-0.05;76.95
75157;BME280;63736;50.076;8.198;2023-03-01T06:08:40;100428.78;;;-0.01;77.50
75157;BME280;63736;50.076;8.198;2023-03-01T06:11:06;100431.31;;;0.04;77.14
75157;BME280;63736;50.076;8.198;2023-03-01T06:13:32;100436.47;;;0.07;76.74
75157;BME280;63736;50.076;8.198;2023-03-01T06:15:57;100438.06;;;0.13;76.77
75157;BME280;63736;50.076;8.198;2023-03-01T06:18:22;100435.44;;;0.14;76.43
75157;BME280;63736;50.076;8.198;2023-03-01T06:20:56;100426.50;;;0.20;76.65
75157;BME280;63736;50.076;8.198;2023-03-01T06:23:23;100434.25;;;0.26;76.26
75157;BME280;63736;50.076;8.198;2023-03-01T06:25:49;100430.53;;;0.33;76.04
75157;BME280;63736;50.076;8.198;2023-03-01T06:28:14;100428.53;;;0.43;75.93
75157;BME280;63736;50.076;8.198;2023-03-01T06:30:40;100427.41;;;0.52;75.79
75157;BME280;63736;50.076;8.198;2023-03-01T06:33:05;100427.09;;;0.63;75.02
75157;BME280;63736;50.076;8.198;2023-03-01T06:35:31;100427.66;;;0.74;74.39
75157;BME280;63736;50.076;8.198;2023-03-01T06:37:58;100424.59;;;0.88;73.69
75157;BME280;63736;50.076;8.198;2023-03-01T06:40:24;100426.84;;;1.02;73.37
75157;BME280;63736;50.076;8.198;2023-03-01T06:42:50;100423.84;;;1.14;71.78
75157;BME280;63736;50.076;8.198;2023-03-01T06:45:17;100421.66;;;1.29;71.02
75157;BME280;63736;50.076;8.198;2023-03-01T06:47:43;100426.50;;;1.41;69.75
75157;BME280;63736;50.076;8.198;2023-03-01T06:50:09;100418.25;;;1.52;67.66
75157;BME280;63736;50.076;8.198;2023-03-01T06:52:34;100413.53;;;1.63;66.87
75157;BME280;63736;50.076;8.198;2023-03-01T06:54:59;100412.25;;;1.75;66.15
75157;BME280;63736;50.076;8.198;2023-03-01T06:57:25;100405.75;;;1.86;65.99
75157;BME280;63736;50.076;8.198;2023-03-01T06:59:51;100408.91;;;1.97;65.42
75157;BME280;63736;50.076;8.198;2023-03-01T07:02:16;100414.63;;;2.10;63.28
75157;BME280;63736;50.076;8.198;2023-03-01T07:04:42;100412.41;;;2.23;62.19
75157;BME280;63736;50.076;8.198;2023-03-01T07:07:08;100409.97;;;2.42;62.18
75157;BME280;63736;50.076;8.198;2023-03-01T07:09:33;100409.03;;;2.68;62.06
75157;BME280;63736;50.076;8.198;2023-03-01T07:11:59;100408.66;;;3.01;61.31
75157;BME280;63736;50.076;8.198;2023-03-01T07:14:24;100408.84;;;3.42;58.66
75157;BME280;63736;50.076;8.198;2023-03-01T07:16:51;100412.59;;;3.79;56.12
75157;BME280;63736;50.076;8.198;2023-03-01T07:19:16;100411.63;;;4.03;53.40
75157;BME280;63736;50.076;8.198;2023-03-01T07:21:42;100409.25;;;4.38;52.93
75157;BME280;63736;50.076;8.198;2023-03-01T07:24:07;100409.13;;;4.80;51.80
75157;BME280;63736;50.076;8.198;2023-03-01T07:26:33;100410.78;;;5.02;49.89
75157;BME280;63736;50.076;8.198;2023-03-01T07:28:59;100409.19;;;5.36;48.27
75157;BME280;63736;50.076;8.198;2023-03-01T07:31:25;100403.56;;;5.79;47.83
75157;BME280;63736;50.076;8.198;2023-03-01T07:33:52;100400.31;;;6.09;46.29
75157;BME280;63736;50.076;8.198;2023-03-01T07:36:18;100391.44;;;6.77;45.49
75157;BME280;63736;50.076;8.198;2023-03-01T07:38:43;100401.31;;;7.55;43.59
75157;BME280;63736;50.076;8.198;2023-03-01T07:41:08;100395.13;;;8.01;41.68
75157;BME280;63736;50.076;8.198;2023-03-01T07:43:33;100377.69;;;8.40;40.18
75157;BME280;63736;50.076;8.198;2023-03-01T07:46:00;100378.97;;;9.19;38.25
75157;BME280;63736;50.076;8.198;2023-03-01T07:48:26;100374.91;;;9.68;37.57
75157;BME280;63736;50.076;8.198;2023-03-01T07:50:51;100372.47;;;10.44;36.93
75157;BME280;63736;50.076;8.198;2023-03-01T07:53:16;100378.03;;;11.17;34.80
75157;BME280;63736;50.076;8.198;2023-03-01T07:55:41;100383.72;;;11.12;33.85
75157;BME280;63736;50.076;8.198;2023-03-01T07:58:07;100380.28;;;10.73;34.00
75157;BME280;63736;50.076;8.198;2023-03-01T08:00:32;100375.63;;;11.01;33.88
75157;BME280;63736;50.076;8.198;2023-03-01T08:03:01;100380.38;;;11.70;33.86
75157;BME280;63736;50.076;8.198;2023-03-01T08:05:27;100377.00;;;12.03;32.36
75157;BME280;63736;50.076;8.198;2023-03-01T08:07:52;100378.78;;;12.38;31.37
75157;BME280;63736;50.076;8.198;2023-03-01T08:10:18;100366.25;;;12.39;30.79
75157;BME280;63736;50.076;8.198;2023-03-01T08:12:43;100376.34;;;12.47;30.83
75157;BME280;63736;50.076;8.198;2023-03-01T08:15:08;100368.06;;;12.95;30.67
75157;BME280;63736;50.076;8.198;2023-03-01T08:17:34;100370.16;;;12.92;29.84
75157;BME280;63736;50.076;8.198;2023-03-01T08:19:59;100374.50;;;13.15;29.84
75157;BME280;63736;50.076;8.198;2023-03-01T08:22:24;100375.56;;;13.47;28.96
75157;BME280;63736;50.076;8.198;2023-03-01T08:24:49;100370.78;;;13.50;29.03
75157;BME280;63736;50.076;8.198;2023-03-01T08:27:16;100379.63;;;13.74;28.83
75157;BME280;63736;50.076;8.198;2023-03-01T08:29:42;100365.38;;;13.94;28.20
75157;BME280;63736;50.076;8.198;2023-03-01T08:32:07;100374.91;;;13.66;28.12
75157;BME280;63736;50.076;8.198;2023-03-01T08:34:33;100375.19;;;13.84;28.58
75157;BME280;63736;50.076;8.198;2023-03-01T08:37:01;100367.19;;;14.36;27.80
75157;BME280;63736;50.076;8.198;2023-03-01T08:39:26;100362.47;;;14.80;27.40
75157;BME280;63736;50.076;8.198;2023-03-01T08:41:51;100364.72;;;15.16;27.44
75157;BME280;63736;50.076;8.198;2023-03-01T08:44:17;100360.53;;;14.92;26.36
75157;BME280;63736;50.076;8.198;2023-03-01T08:46:43;100364.47;;;14.57;26.69
75157;BME280;63736;50.076;8.198;2023-03-01T08:49:15;100364.09;;;14.41;27.15
75157;BME280;63736;50.076;8.198;2023-03-01T08:51:42;100355.00;;;14.11;27.29
75157;BME280;63736;50.076;8.198;2023-03-01T08:54:15;100353.66;;;14.16;27.42
75157;BME280;63736;50.076;8.198;2023-03-01T08:56:41;100350.50;;;14.42;27.60
75157;BME280;63736;50.076;8.198;2023-03-01T08:59:07;100342.94;;;14.26;27.01
75157;BME280;63736;50.076;8.198;2023-03-01T09:01:32;100343.34;;;14.52;27.12
75157;BME280;63736;50.076;8.198;2023-03-01T09:03:58;100342.69;;;14.91;26.65
75157;BME280;63736;50.076;8.198;2023-03-01T09:06:23;100335.63;;;14.59;26.46
75157;BME280;63736;50.076;8.198;2023-03-01T09:08:49;100337.59;;;14.57;26.72
75157;BME280;63736;50.076;8.198;2023-03-01T09:11:16;100331.84;;;15.12;26.67
75157;BME280;63736;50.076;8.198;2023-03-01T09:13:41;100331.84;;;15.12;26.39
75157;BME280;63736;50.076;8.198;2023-03-01T09:16:07;100329.66;;;14.56;26.33
75157;BME280;63736;50.076;8.198;2023-03-01T09:18:32;100336.97;;;13.59;27.50
75157;BME280;63736;50.076;8.198;2023-03-01T09:21:05;100324.63;;;13.89;27.61
75157;BME280;63736;50.076;8.198;2023-03-01T09:23:43;100331.47;;;14.03;27.11
75157;BME280;63736;50.076;8.198;2023-03-01T09:26:09;100311.06;;;13.69;27.76
75157;BME280;63736;50.076;8.198;2023-03-01T09:28:35;100315.50;;;14.53;27.19
75157;BME280;63736;50.076;8.198;2023-03-01T09:31:01;100313.38;;;14.98;26.92
75157;BME280;63736;50.076;8.198;2023-03-01T09:33:27;100329.91;;;14.83;26.30
75157;BME280;63736;50.076;8.198;2023-03-01T09:36:03;100325.19;;;14.45;26.38
75157;BME280;63736;50.076;8.198;2023-03-01T09:38:28;100319.63;;;13.84;27.18
75157;BME280;63736;50.076;8.198;2023-03-01T09:40:54;100338.28;;;13.65;27.77
75157;BME280;63736;50.076;8.198;2023-03-01T09:43:36;100326.44;;;13.23;28.22
75157;BME280;63736;50.076;8.198;2023-03-01T09:46:05;100315.59;;;12.36;28.87
75157;BME280;63736;50.076;8.198;2023-03-01T09:49:07;100319.66;;;11.59;29.84
75157;BME280;63736;50.076;8.198;2023-03-01T09:51:29;100319.00;;;10.83;31.05
75157;BME280;63736;50.076;8.198;2023-03-01T09:53:56;100320.03;;;10.56;32.20
75157;BME280;63736;50.076;8.198;2023-03-01T09:56:44;100321.94;;;10.15;32.59
75157;BME280;63736;50.076;8.198;2023-03-01T10:04:26;100322.00;;;8.51;35.63
75157;BME280;63736;50.076;8.198;2023-03-01T10:07:14;100307.25;;;8.31;35.54
75157;BME280;63736;50.076;8.198;2023-03-01T10:09:42;100307.91;;;8.20;36.18
75157;BME280;63736;50.076;8.198;2023-03-01T10:12:15;100311.81;;;8.15;37.08
75157;BME280;63736;50.076;8.198;2023-03-01T10:14:55;100293.75;;;8.05;37.27
75157;BME280;63736;50.076;8.198;2023-03-01T10:19:54;100303.13;;;7.82;37.28
75157;BME280;63736;50.076;8.198;2023-03-01T10:22:29;100295.97;;;7.83;37.64
75157;BME280;63736;50.076;8.198;2023-03-01T10:24:57;100300.66;;;7.79;38.40
75157;BME280;63736;50.076;8.198;2023-03-01T10:27:24;100298.91;;;7.64;37.87
75157;BME280;63736;50.076;8.198;2023-03-01T10:32:18;100295.38;;;7.33;38.44
75157;BME280;63736;50.076;8.198;2023-03-01T10:34:43;100291.19;;;7.28;38.58
75157;BME280;63736;50.076;8.198;2023-03-01T10:37:10;100280.94;;;7.06;38.36
75157;BME280;63736;50.076;8.198;2023-03-01T10:39:36;100273.50;;;6.97;39.30
75157;BME280;63736;50.076;8.198;2023-03-01T10:42:05;100276.81;;;7.01;39.58
75157;BME280;63736;50.076;8.198;2023-03-01T10:44:48;100282.50;;;6.94;39.64
75157;BME280;63736;50.076;8.198;2023-03-01T10:49:39;100279.56;;;6.99;39.12
75157;BME280;63736;50.076;8.198;2023-03-01T10:52:11;100274.34;;;6.98;39.37
75157;BME280;63736;50.076;8.198;2023-03-01T10:54:43;100260.22;;;6.97;39.09
75157;BME280;63736;50.076;8.198;2023-03-01T10:57:30;100273.22;;;7.02;39.34
75157;BME280;63736;50.076;8.198;2023-03-01T11:00:15;100265.44;;;6.99;39.61
75157;BME280;63736;50.076;8.198;2023-03-01T11:02:42;100253.00;;;6.99;39.92
75157;BME280;63736;50.076;8.198;2023-03-01T11:07:46;100248.97;;;7.08;39.32
75157;BME280;63736;50.076;8.198;2023-03-01T11:10:15;100244.34;;;6.95;39.04
75157;BME280;63736;50.076;8.198;2023-03-01T11:12:41;100236.47;;;6.94;38.95
75157;BME280;63736;50.076;8.198;2023-03-01T11:15:08;100246.41;;;6.90;38.97
75157;BME280;63736;50.076;8.198;2023-03-01T11:17:44;100227.16;;;6.87;38.71
75157;BME280;63736;50.076;8.198;2023-03-01T11:22:37;100216.25;;;6.91;39.07
75157;BME280;63736;50.076;8.198;2023-03-01T11:25:10;100225.22;;;7.05;39.07
75157;BME280;63736;50.076;8.198;2023-03-01T11:27:38;100224.72;;;7.14;38.77
75157;BME280;63736;50.076;8.198;2023-03-01T11:32:34;100206.47;;;7.08;37.56
75157;BME280;63736;50.076;8.198;2023-03-01T11:35:15;100207.16;;;7.11;37.86
75157;BME280;63736;50.076;8.198;2023-03-01T11:40:27;100223.53;;;7.04;38.29
75157;BME280;63736;50.076;8.198;2023-03-01T11:45:19;100190.03;;;7.01;38.09
75157;BME280;63736;50.076;8.198;2023-03-01T11:50:26;100187.91;;;7.22;37.72
75157;BME280;63736;50.076;8.198;2023-03-01T11:52:59;100188.50;;;7.27;37.10
75157;BME280;63736;50.076;8.198;2023-03-01T11:58:17;100179.78;;;7.40;37.36
75157;BME280;63736;50.076;8.198;2023-03-01T12:03:21;100160.34;;;7.54;37.02
75157;BME280;63736;50.076;8.198;2023-03-01T12:11:10;100147.25;;;7.65;37.33
75157;BME280;63736;50.076;8.198;2023-03-01T12:13:44;100144.22;;;7.57;37.62
75157;BME280;63736;50.076;8.198;2023-03-01T12:16:29;100138.03;;;7.56;37.61
75157;BME280;63736;50.076;8.198;2023-03-01T12:19:07;100129.69;;;7.63;38.13
75157;BME280;63736;50.076;8.198;2023-03-01T12:21:42;100135.72;;;7.65;37.66
75157;BME280;63736;50.076;8.198;2023-03-01T12:24:21;100132.34;;;7.63;37.09
75157;BME280;63736;50.076;8.198;2023-03-01T12:29:34;100123.50;;;7.76;37.50
75157;BME280;63736;50.076;8.198;2023-03-01T12:32:12;100119.38;;;7.85;37.76
75157;BME280;63736;50.076;8.198;2023-03-01T12:42:12;100104.88;;;7.91;37.59
75157;BME280;63736;50.076;8.198;2023-03-01T12:49:52;100098.03;;;7.87;37.29
75157;BME280;63736;50.076;8.198;2023-03-01T12:52:24;100090.69;;;7.90;36.54
75157;BME280;63736;50.076;8.198;2023-03-01T12:54:54;100081.56;;;7.94;36.90
75157;BME280;63736;50.076;8.198;2023-03-01T12:57:26;100087.53;;;7.98;36.45
75157;BME280;63736;50.076;8.198;2023-03-01T13:00:02;100085.34;;;8.05;37.28
75157;BME280;63736;50.076;8.198;2023-03-01T13:02:40;100071.75;;;8.09;37.29
75157;BME280;63736;50.076;8.198;2023-03-01T13:05:22;100073.16;;;8.15;36.87
75157;BME280;63736;50.076;8.198;2023-03-01T13:10:22;100067.66;;;8.18;36.21
75157;BME280;63736;50.076;8.198;2023-03-01T13:17:48;100053.28;;;8.21;37.01
75157;BME280;63736;50.076;8.198;2023-03-01T13:20:18;100053.06;;;8.24;36.83
75157;BME280;63736;50.076;8.198;2023-03-01T13:22:45;100054.91;;;8.23;36.56
75157;BME280;63736;50.076;8.198;2023-03-01T13:25:17;100061.44;;;8.18;36.74
75157;BME280;63736;50.076;8.198;2023-03-01T13:27:43;100044.75;;;8.16;36.77
75157;BME280;63736;50.076;8.198;2023-03-01T13:30:37;100050.25;;;8.13;37.39
75157;BME280;63736;50.076;8.198;2023-03-01T13:35:42;100042.47;;;8.09;36.81
75157;BME280;63736;50.076;8.198;2023-03-01T13:38:36;100029.69;;;8.02;36.34
75157;BME280;63736;50.076;8.198;2023-03-01T13:40:59;100027.03;;;8.02;36.95
75157;BME280;63736;50.076;8.198;2023-03-01T13:43:34;100028.34;;;8.09;36.62
75157;BME280;63736;50.076;8.198;2023-03-01T13:46:00;100026.22;;;8.14;36.69
75157;BME280;63736;50.076;8.198;2023-03-01T13:48:27;100017.38;;;8.14;36.88
75157;BME280;63736;50.076;8.198;2023-03-01T13:51:03;100017.19;;;8.17;36.65
75157;BME280;63736;50.076;8.198;2023-03-01T13:53:31;100022.19;;;8.21;36.18
75157;BME280;63736;50.076;8.198;2023-03-01T13:56:00;100015.91;;;8.22;35.92
75157;BME280;63736;50.076;8.198;2023-03-01T13:58:28;100020.47;;;8.20;35.81
75157;BME280;63736;50.076;8.198;2023-03-01T14:01:03;100007.78;;;8.11;36.41
75157;BME280;63736;50.076;8.198;2023-03-01T14:03:29;100001.25;;;8.02;35.80
75157;BME280;63736;50.076;8.198;2023-03-01T14:08:24;100001.38;;;8.01;36.29